Time;durP1;ratioP1;P1;durP2;ratioP2;P2;SDS_P1;SDS_P2;PMS_P1;PMS_P2;Temp;Humidity;BMP_temperature;BMP_pressure;BME280_temperature;BME280_humidity;BME280_pressure;Samples;Min_cycle;Max_cycle;Signal;HPM_P1;HPM_P2
2024/01/07 00:00:55;;;;;;;125.72;39.90;;;0.80;99.90;;;;;;4993363;28;20572;-77
2024/01/07 00:03:22;;;;;;;104.05;34.38;;;0.80;99.90;;;;;;5015968;28;20068;-75
2024/01/07 00:05:49;;;;;;;129.25;42.83;;;0.70;99.90;;;;;;5036478;28;20098;-80
2024/01/07 00:08:16;;;;;;;121.10;39.90;;;0.70;99.90;;;;;;5041378;28;20108;-80
2024/01/07 00:10:43;;;;;;;129.32;41.30;;;0.80;99.90;;;;;;5039301;28;20045;-81
2024/01/07 00:13:09;;;;;;;135.68;43.53;;;0.90;99.90;;;;;;5043468;28;20056;-80
2024/01/07 00:15:36;;;;;;;110.90;34.55;;;0.90;99.90;;;;;;5025435;28;20064;-81
2024/01/07 00:18:03;;;;;;;118.35;40.92;;;0.80;99.90;;;;;;5025792;28;20816;-81
2024/01/07 00:20:30;;;;;;;133.48;42.67;;;0.70;99.90;;;;;;5040612;28;21311;-81
2024/01/07 00:22:57;;;;;;;123.15;41.00;;;0.70;99.90;;;;;;5041457;28;20044;-80
2024/01/07 00:25:24;;;;;;;138.38;42.42;;;0.80;99.90;;;;;;5040334;28;20040;-81
2024/01/07 00:27:51;;;;;;;119.53;39.28;;;0.80;99.90;;;;;;5042596;28;20666;-81
2024/01/07 00:30:19;;;;;;;144.82;46.45;;;0.80;99.90;;;;;;5039166;28;20048;-80
2024/01/07 00:32:46;;;;;;;111.85;36.63;;;0.70;99.90;;;;;;4990150;28;20133;-82
2024/01/07 00:35:13;;;;;;;127.75;42.38;;;0.70;99.90;;;;;;5022051;28;20064;-82
2024/01/07 00:37:39;;;;;;;125.53;41.40;;;0.70;99.90;;;;;;5002077;28;20407;-81
2024/01/07 00:40:07;;;;;;;94.82;33.80;;;0.70;99.90;;;;;;5046845;28;20123;-81
2024/01/07 00:42:34;;;;;;;76.68;30.73;;;0.70;99.90;;;;;;5029162;28;20079;-81
2024/01/07 00:45:00;;;;;;;114.40;44.80;;;0.60;99.90;;;;;;5041442;28;20068;-83
2024/01/07 00:47:27;;;;;;;109.38;43.50;;;0.60;99.90;;;;;;5031300;28;20052;-83
2024/01/07 00:49:54;;;;;;;108.57;41.45;;;0.70;99.90;;;;;;5040478;28;20094;-83
2024/01/07 00:52:23;;;;;;;111.20;42.42;;;0.70;99.90;;;;;;5026718;28;20044;-82
2024/01/07 00:54:49;;;;;;;115.03;43.90;;;0.70;99.90;;;;;;5044275;28;20060;-82
2024/01/07 00:57:16;;;;;;;88.03;33.15;;;0.70;99.90;;;;;;5029532;28;20052;-82
2024/01/07 00:59:43;;;;;;;88.55;38.50;;;0.70;99.90;;;;;;5043778;28;20044;-81
2024/01/07 01:02:10;;;;;;;98.28;40.22;;;0.60;99.90;;;;;;5041092;28;20736;-82
2024/01/07 01:04:39;;;;;;;108.90;46.17;;;0.60;99.90;;;;;;5008285;28;20040;-80
2024/01/07 01:07:07;;;;;;;101.75;43.60;;;0.70;99.90;;;;;;5020870;28;20063;-81
2024/01/07 01:09:34;;;;;;;101.70;43.33;;;0.70;99.90;;;;;;5017854;28;20053;-82
2024/01/07 01:12:01;;;;;;;101.00;42.60;;;0.80;99.90;;;;;;5012104;28;20057;-81
2024/01/07 01:14:28;;;;;;;79.40;37.08;;;0.80;99.90;;;;;;5037314;28;20041;-82
2024/01/07 01:16:54;;;;;;;85.63;36.05;;;0.90;99.90;;;;;;5001958;28;20079;-81
2024/01/07 01:19:21;;;;;;;59.05;26.73;;;0.80;99.90;;;;;;5032611;28;20099;-83
2024/01/07 01:21:49;;;;;;;86.07;37.60;;;0.60;99.90;;;;;;5038339;28;20168;-82
2024/01/07 01:24:15;;;;;;;70.38;33.28;;;0.70;99.90;;;;;;5033561;28;20417;-81
2024/01/07 01:26:42;;;;;;;86.78;38.92;;;0.60;99.90;;;;;;5041660;28;20060;-85
2024/01/07 01:29:09;;;;;;;80.15;35.40;;;0.60;99.90;;;;;;5048171;28;20058;-84
2024/01/07 01:31:35;;;;;;;67.68;30.50;;;0.60;99.90;;;;;;5040846;28;20049;-85
2024/01/07 01:34:04;;;;;;;70.57;33.38;;;0.60;99.90;;;;;;5019641;28;20029;-84
2024/01/07 01:36:31;;;;;;;53.55;27.80;;;0.60;99.90;;;;;;5032444;28;20037;-82
2024/01/07 01:38:58;;;;;;;58.70;30.60;;;0.50;99.90;;;;;;5040888;28;20055;-83
2024/01/07 01:41:25;;;;;;;71.38;31.48;;;0.60;99.90;;;;;;5033292;28;20041;-82
2024/01/07 01:43:57;;;;;;;61.63;31.08;;;0.50;99.90;;;;;;5041760;28;20044;-85
2024/01/07 01:46:24;;;;;;;55.58;24.88;;;0.60;99.90;;;;;;5078385;28;20032;-85
2024/01/07 01:48:52;;;;;;;62.58;30.58;;;0.50;99.90;;;;;;5038696;28;20103;-81
2024/01/07 01:51:19;;;;;;;58.00;30.80;;;0.60;99.90;;;;;;5050971;28;20048;-82
2024/01/07 01:53:48;;;;;;;65.45;33.65;;;0.60;99.90;;;;;;5023997;28;20696;-81
2024/01/07 01:56:18;;;;;;;60.05;33.45;;;0.60;99.90;;;;;;5038194;28;20044;-81
2024/01/07 01:58:45;;;;;;;58.08;31.27;;;0.70;99.90;;;;;;5040560;28;20409;-84
2024/01/07 02:01:12;;;;;;;40.88;23.30;;;0.80;99.90;;;;;;5037912;28;20091;-81
2024/01/07 02:03:40;;;;;;;58.25;31.60;;;0.70;99.90;;;;;;5012944;28;20126;-84
2024/01/07 02:06:07;;;;;;;59.75;27.35;;;0.70;99.90;;;;;;5008427;28;20726;-84
2024/01/07 02:08:34;;;;;;;59.75;30.98;;;0.70;99.90;;;;;;5019535;28;20107;-83
2024/01/07 02:11:18;;;;;;;61.22;28.50;;;0.70;99.90;;;;;;5022349;28;20056;-83
2024/01/07 02:13:45;;;;;;;64.18;31.92;;;0.60;99.90;;;;;;5035228;28;20069;-83
2024/01/07 02:16:12;;;;;;;69.75;33.78;;;0.60;99.90;;;;;;5043666;28;20052;-82
2024/01/07 02:18:41;;;;;;;59.58;29.17;;;0.60;99.90;;;;;;5023431;28;20037;-83
2024/01/07 02:21:10;;;;;;;60.63;32.33;;;0.60;99.90;;;;;;5045324;28;20127;-83
2024/01/07 02:23:37;;;;;;;74.97;35.58;;;0.60;99.90;;;;;;5039967;28;20045;-84
2024/01/07 02:26:04;;;;;;;79.53;36.47;;;0.70;99.90;;;;;;5018715;28;20041;-81
2024/01/07 02:28:32;;;;;;;64.13;32.60;;;0.70;99.90;;;;;;5050183;28;20647;-82
2024/01/07 02:30:59;;;;;;;75.60;35.65;;;0.70;99.90;;;;;;5052291;28;20051;-82
2024/01/07 02:33:26;;;;;;;68.00;33.35;;;0.60;99.90;;;;;;5024067;28;20128;-81
2024/01/07 02:35:53;;;;;;;63.08;32.22;;;0.60;99.90;;;;;;5038833;28;20041;-83
2024/01/07 02:38:21;;;;;;;61.22;30.83;;;0.50;99.90;;;;;;5030818;28;20091;-82
2024/01/07 02:40:48;;;;;;;66.45;32.25;;;0.70;99.90;;;;;;5045258;28;20128;-82
2024/01/07 02:43:15;;;;;;;71.82;33.25;;;0.70;99.90;;;;;;5022788;28;20104;-82
2024/01/07 02:45:42;;;;;;;51.22;25.13;;;0.60;99.90;;;;;;5042589;28;20044;-82
2024/01/07 02:48:09;;;;;;;51.45;28.60;;;0.50;99.90;;;;;;5003550;28;20041;-82
2024/01/07 02:50:36;;;;;;;52.13;27.35;;;0.40;99.90;;;;;;5002225;28;20045;-85
2024/01/07 02:53:03;;;;;;;49.47;24.92;;;0.50;99.90;;;;;;5021111;28;20041;-84
2024/01/07 02:55:30;;;;;;;50.28;26.23;;;0.40;99.90;;;;;;5025864;28;20049;-84
2024/01/07 02:57:56;;;;;;;45.67;27.42;;;0.40;99.90;;;;;;5021803;28;20049;-80
2024/01/07 03:00:23;;;;;;;48.88;24.88;;;0.50;99.90;;;;;;5022989;28;20045;-81
2024/01/07 03:02:50;;;;;;;60.50;29.77;;;0.50;99.90;;;;;;5038933;28;20045;-85
2024/01/07 03:05:17;;;;;;;56.08;27.25;;;0.40;99.90;;;;;;5002690;28;20527;-81
2024/01/07 03:07:56;;;;;;;63.45;30.83;;;0.40;99.90;;;;;;5038284;28;20051;-83
2024/01/07 03:10:32;;;;;;;56.05;28.35;;;0.30;99.90;;;;;;5041900;28;20467;-83
2024/01/07 03:13:02;;;;;;;48.17;26.40;;;0.30;99.90;;;;;;5029363;28;21139;-81
2024/01/07 03:15:29;;;;;;;61.58;28.75;;;0.20;99.90;;;;;;5002933;28;20048;-83
2024/01/07 03:17:57;;;;;;;54.03;27.17;;;0.20;99.90;;;;;;5028210;28;20044;-81
2024/01/07 03:20:24;;;;;;;61.38;29.85;;;0.20;99.90;;;;;;4998182;28;20049;-82
2024/01/07 03:22:51;;;;;;;47.03;23.67;;;0.20;99.90;;;;;;5042437;28;20079;-81
2024/01/07 03:25:17;;;;;;;61.40;27.80;;;0.20;99.90;;;;;;5037434;28;20045;-81
2024/01/07 03:27:44;;;;;;;74.80;31.63;;;0.10;99.90;;;;;;5035866;28;20045;-82
2024/01/07 03:30:11;;;;;;;56.20;24.95;;;0.10;99.90;;;;;;5047390;28;20053;-83
2024/01/07 03:32:38;;;;;;;48.63;20.48;;;0.00;99.90;;;;;;5027247;28;20048;-84
2024/01/07 03:35:05;;;;;;;47.33;24.63;;;0.00;99.90;;;;;;5043485;28;20133;-81
2024/01/07 03:37:32;;;;;;;64.57;30.67;;;0.00;99.90;;;;;;5025531;28;20603;-83
2024/01/07 03:39:59;;;;;;;86.63;32.22;;;0.00;99.90;;;;;;5033219;28;20056;-84
2024/01/07 03:42:26;;;;;;;61.65;25.23;;;0.00;99.90;;;;;;5047581;28;20099;-82
2024/01/07 03:44:53;;;;;;;46.38;20.88;;;0.00;99.90;;;;;;5023742;28;20045;-84
2024/01/07 03:47:20;;;;;;;60.95;28.75;;;-0.10;99.90;;;;;;5031205;28;20032;-82
2024/01/07 03:49:47;;;;;;;81.35;34.13;;;-0.10;99.90;;;;;;5048308;28;20064;-82
2024/01/07 03:52:14;;;;;;;66.28;30.80;;;0.00;99.90;;;;;;5018611;28;20044;-87
2024/01/07 03:54:41;;;;;;;74.05;32.33;;;-0.10;99.90;;;;;;5043112;28;20502;-86
2024/01/07 03:57:08;;;;;;;72.43;30.80;;;-0.10;99.90;;;;;;5047144;28;20037;-85
2024/01/07 03:59:34;;;;;;;52.72;24.65;;;-0.10;99.90;;;;;;5047966;28;20049;-83
2024/01/07 04:02:02;;;;;;;77.25;30.98;;;0.00;99.90;;;;;;5041679;28;20048;-83
2024/01/07 04:04:28;;;;;;;56.60;26.98;;;0.00;99.90;;;;;;5041046;28;20055;-84
2024/01/07 04:06:56;;;;;;;80.50;35.53;;;-0.10;99.90;;;;;;5030265;28;20040;-83
2024/01/07 04:09:23;;;;;;;82.97;37.30;;;-0.10;99.90;;;;;;5024447;28;20044;-83
2024/01/07 04:11:50;;;;;;;82.78;38.40;;;-0.10;99.90;;;;;;5040259;28;20063;-85
2024/01/07 04:14:17;;;;;;;51.15;28.52;;;0.00;99.90;;;;;;5040405;28;20049;-86
2024/01/07 04:16:43;;;;;;;74.88;38.70;;;0.00;99.90;;;;;;5010422;28;20529;-84
2024/01/07 04:19:10;;;;;;;58.53;29.10;;;-0.10;99.90;;;;;;5047489;28;20468;-86
2024/01/07 04:21:37;;;;;;;64.43;33.42;;;0.00;99.90;;;;;;5022493;28;20765;-89
2024/01/07 04:24:04;;;;;;;53.55;30.55;;;0.00;99.90;;;;;;5013924;28;20144;-83
2024/01/07 04:26:31;;;;;;;55.80;31.45;;;0.00;99.90;;;;;;5025401;28;20041;-85
2024/01/07 04:28:57;;;;;;;59.47;32.65;;;0.00;99.90;;;;;;5032607;28;20044;-89
2024/01/07 04:31:24;;;;;;;59.33;32.38;;;0.10;99.90;;;;;;5041790;28;20045;-84
2024/01/07 04:33:51;;;;;;;59.63;32.10;;;0.10;99.90;;;;;;5047739;28;20786;-84
2024/01/07 04:36:18;;;;;;;45.75;26.27;;;0.10;99.90;;;;;;5046707;28;20140;-85
2024/01/07 04:38:45;;;;;;;36.50;23.77;;;0.10;99.90;;;;;;5044722;28;20667;-89
2024/01/07 04:41:11;;;;;;;44.72;26.30;;;0.00;99.90;;;;;;5053862;28;20676;-87
2024/01/07 04:43:38;;;;;;;41.95;24.25;;;0.00;99.90;;;;;;5025152;28;20634;-85
2024/01/07 04:46:06;;;;;;;49.22;26.75;;;-0.10;99.90;;;;;;5036031;28;20061;-84
2024/01/07 04:48:33;;;;;;;45.17;25.25;;;0.00;99.90;;;;;;5026809;28;20057;-86
2024/01/07 04:51:00;;;;;;;41.60;22.52;;;-0.10;99.90;;;;;;5052561;28;20036;-86
2024/01/07 04:53:26;;;;;;;36.40;24.25;;;-0.10;99.90;;;;;;5010533;28;20040;-84
2024/01/07 04:55:53;;;;;;;39.22;23.38;;;-0.10;99.90;;;;;;5034095;28;20045;-84
2024/01/07 04:58:20;;;;;;;36.50;23.38;;;-0.20;99.90;;;;;;5052851;28;20036;-92
2024/01/07 05:00:46;;;;;;;28.30;18.92;;;-0.20;99.90;;;;;;5023513;28;20231;-87
2024/01/07 05:03:14;;;;;;;38.80;23.20;;;-0.20;99.90;;;;;;5035271;28;20040;-89
2024/01/07 05:05:40;;;;;;;34.10;22.67;;;-0.20;99.90;;;;;;5026710;28;20793;-88
2024/01/07 05:08:07;;;;;;;19.67;14.43;;;-0.20;99.90;;;;;;5048396;28;20049;-88
2024/01/07 05:10:34;;;;;;;24.73;16.83;;;-0.30;99.90;;;;;;5039898;28;20591;-87
2024/01/07 05:13:04;;;;;;;23.67;15.27;;;-0.40;99.90;;;;;;5034418;28;20118;-89
2024/01/07 05:15:32;;;;;;;33.20;21.70;;;-0.50;99.90;;;;;;5029344;28;20059;-87
2024/01/07 05:17:59;;;;;;;30.05;20.30;;;-0.50;99.90;;;;;;5019822;28;20036;-91
2024/01/07 05:20:26;;;;;;;21.17;16.75;;;-0.60;99.90;;;;;;5069017;28;20060;-91
2024/01/07 05:22:53;;;;;;;17.23;13.55;;;-0.60;99.90;;;;;;5047902;28;20056;-84
2024/01/07 05:25:20;;;;;;;27.35;19.33;;;-0.70;99.90;;;;;;5036824;28;20077;-84
2024/01/07 05:27:46;;;;;;;27.10;19.27;;;-0.70;99.90;;;;;;5025679;28;20108;-91
2024/01/07 05:30:13;;;;;;;26.02;17.13;;;-0.70;99.90;;;;;;5025946;28;20115;-90
2024/01/07 05:32:40;;;;;;;24.27;16.98;;;-0.80;99.90;;;;;;5032476;28;20144;-86
2024/01/07 05:35:08;;;;;;;29.95;18.40;;;-0.70;99.90;;;;;;5001249;28;20049;-84
2024/01/07 05:37:35;;;;;;;34.40;21.55;;;-0.70;99.90;;;;;;5040975;28;20124;-84
2024/01/07 05:40:02;;;;;;;38.50;23.30;;;-0.70;99.90;;;;;;5025453;28;20053;-89
2024/01/07 05:42:29;;;;;;;40.35;23.40;;;-0.80;99.90;;;;;;5027621;28;20380;-89
2024/01/07 05:44:56;;;;;;;40.58;23.63;;;-0.80;99.90;;;;;;5055122;28;20051;-84
2024/01/07 05:47:22;;;;;;;32.15;20.17;;;-0.80;99.90;;;;;;5027401;28;20041;-84
2024/01/07 05:49:51;;;;;;;46.22;27.98;;;-0.80;99.90;;;;;;5045514;28;20044;-86
2024/01/07 05:52:19;;;;;;;32.75;19.50;;;-0.80;99.90;;;;;;5046826;28;20045;-87
2024/01/07 05:54:46;;;;;;;45.83;27.83;;;-0.70;99.90;;;;;;5027281;28;20040;-87
2024/01/07 05:57:12;;;;;;;48.75;31.05;;;-0.80;99.90;;;;;;5043448;28;20073;-86
2024/01/07 05:59:39;;;;;;;50.20;28.75;;;-0.80;99.90;;;;;;5050656;28;20507;-88
2024/01/07 06:02:06;;;;;;;50.65;28.15;;;-0.90;99.90;;;;;;5022733;28;20921;-85
2024/01/07 06:04:33;;;;;;;43.03;27.27;;;-0.80;99.90;;;;;;5023961;28;20049;-85
2024/01/07 06:07:00;;;;;;;40.78;25.73;;;-0.80;99.90;;;;;;5026208;28;20045;-86
2024/01/07 06:09:27;;;;;;;34.28;21.70;;;-0.80;99.90;;;;;;5050271;28;20052;-84
2024/01/07 06:11:55;;;;;;;42.75;28.13;;;-0.90;99.90;;;;;;5034283;28;20044;-87
2024/01/07 06:14:25;;;;;;;32.28;20.38;;;-0.80;99.90;;;;;;5025982;28;20052;-86
2024/01/07 06:16:52;;;;;;;36.10;25.55;;;-0.80;99.90;;;;;;5026715;28;20041;-86
2024/01/07 06:19:19;;;;;;;45.58;28.48;;;-0.80;99.90;;;;;;5021692;28;20041;-86
2024/01/07 06:21:46;;;;;;;43.78;29.52;;;-0.70;99.90;;;;;;5035994;28;20041;-84
2024/01/07 06:24:13;;;;;;;42.53;29.85;;;-0.70;99.90;;;;;;5037860;28;20045;-90
2024/01/07 06:26:40;;;;;;;35.67;22.10;;;-0.80;99.90;;;;;;5034003;28;20123;-85
2024/01/07 06:29:09;;;;;;;50.50;30.52;;;-0.90;99.90;;;;;;5033065;28;20048;-87
2024/01/07 06:31:36;;;;;;;31.75;21.20;;;-0.90;99.90;;;;;;5040839;28;20048;-85
2024/01/07 06:34:03;;;;;;;38.10;26.90;;;-0.90;99.90;;;;;;5039676;28;20045;-84
2024/01/07 06:36:30;;;;;;;42.60;27.38;;;-0.90;99.90;;;;;;5013064;28;20064;-86
2024/01/07 06:38:57;;;;;;;48.35;27.98;;;-1.00;99.90;;;;;;5034696;28;20040;-85
2024/01/07 06:41:23;;;;;;;30.77;19.15;;;-1.00;99.90;;;;;;5029705;28;20096;-88
2024/01/07 06:43:53;;;;;;;43.50;27.95;;;-1.10;99.90;;;;;;5041551;28;20049;-88
2024/01/07 06:46:20;;;;;;;33.08;23.17;;;-1.10;99.90;;;;;;5011127;28;20079;-85
2024/01/07 06:48:47;;;;;;;36.97;24.73;;;-1.00;99.90;;;;;;5051254;28;20547;-86
2024/01/07 06:51:17;;;;;;;36.53;26.10;;;-1.20;99.90;;;;;;5044979;28;20060;-88
2024/01/07 06:53:44;;;;;;;34.60;24.60;;;-1.20;99.90;;;;;;5019569;28;20084;-85
2024/01/07 06:56:11;;;;;;;39.30;22.27;;;-1.20;99.90;;;;;;5025798;28;20086;-84
2024/01/07 06:58:38;;;;;;;38.00;27.48;;;-1.10;99.90;;;;;;5047354;28;20414;-86
2024/01/07 07:01:07;;;;;;;35.55;27.48;;;-1.10;99.90;;;;;;5049886;28;20033;-87
2024/01/07 07:03:34;;;;;;;35.53;26.55;;;-1.10;99.90;;;;;;5052773;28;20714;-88
2024/01/07 07:06:01;;;;;;;37.35;27.88;;;-1.00;99.90;;;;;;5021876;28;20053;-87
2024/01/07 07:08:27;;;;;;;37.17;26.98;;;-1.10;99.90;;;;;;5045469;28;20076;-87
2024/01/07 07:10:54;;;;;;;32.03;23.52;;;-1.20;99.90;;;;;;5042337;28;20049;-88
2024/01/07 07:13:21;;;;;;;40.08;25.48;;;-1.20;99.90;;;;;;5047461;28;20098;-91
2024/01/07 07:15:47;;;;;;;37.50;24.80;;;-1.30;99.90;;;;;;5043039;28;20503;-84
2024/01/07 07:18:14;;;;;;;35.03;25.83;;;-1.30;99.90;;;;;;5019813;28;20296;-86
2024/01/07 07:20:41;;;;;;;36.85;26.77;;;-1.30;99.90;;;;;;5055566;28;20588;-85
2024/01/07 07:23:08;;;;;;;34.58;25.65;;;-1.20;99.90;;;;;;5042527;28;20052;-88
2024/01/07 07:25:38;;;;;;;36.83;26.70;;;-1.10;99.90;;;;;;5030435;28;20336;-86
2024/01/07 07:28:05;;;;;;;25.83;21.30;;;-1.10;99.90;;;;;;5035128;28;20049;-87
2024/01/07 07:30:32;;;;;;;34.22;27.27;;;-1.20;99.90;;;;;;5026912;28;20384;-89
2024/01/07 07:32:59;;;;;;;32.20;25.67;;;-1.30;99.90;;;;;;5055647;28;20044;-88
2024/01/07 07:35:26;;;;;;;29.95;24.02;;;-1.40;99.90;;;;;;5034818;28;20050;-79
2024/01/07 07:37:53;;;;;;;29.15;23.08;;;-1.40;99.90;;;;;;5042231;28;20041;-81
2024/01/07 07:40:20;;;;;;;33.55;24.40;;;-1.40;99.90;;;;;;5019691;28;20036;-80
2024/01/07 07:42:47;;;;;;;34.95;26.17;;;-1.40;99.90;;;;;;5035659;28;20068;-81
2024/01/07 07:45:14;;;;;;;32.95;24.15;;;-1.30;99.90;;;;;;5002700;28;20064;-81
2024/01/07 07:47:44;;;;;;;36.30;24.85;;;-1.30;99.90;;;;;;5011916;28;20056;-81
2024/01/07 07:50:11;;;;;;;32.83;23.48;;;-1.40;99.90;;;;;;5027458;28;20052;-81
2024/01/07 07:52:38;;;;;;;33.40;23.27;;;-1.30;99.90;;;;;;5014357;28;20790;-81
2024/01/07 07:55:06;;;;;;;32.88;24.67;;;-1.40;99.90;;;;;;5011526;28;20041;-81
2024/01/07 07:57:33;;;;;;;32.63;25.10;;;-1.40;99.90;;;;;;5035635;28;20064;-81
2024/01/07 08:00:01;;;;;;;28.42;25.15;;;-1.30;99.90;;;;;;5034285;28;20090;-80
2024/01/07 08:02:31;;;;;;;28.52;24.55;;;-1.30;99.90;;;;;;5013471;28;20120;-80
2024/01/07 08:04:57;;;;;;;25.48;22.42;;;-1.20;99.90;;;;;;5016431;28;20067;-83
2024/01/07 08:07:25;;;;;;;27.77;24.90;;;-1.20;99.90;;;;;;5042950;28;20052;-81
2024/01/07 08:09:53;;;;;;;32.35;25.58;;;-1.40;99.90;;;;;;5037375;28;20518;-81
2024/01/07 08:12:20;;;;;;;29.15;23.50;;;-1.40;99.90;;;;;;4991203;28;21022;-81
2024/01/07 08:14:47;;;;;;;25.75;23.00;;;-1.40;99.90;;;;;;5031647;28;20049;-80
2024/01/07 08:17:14;;;;;;;27.38;24.73;;;-1.30;99.90;;;;;;5015651;28;20247;-81
2024/01/07 08:19:40;;;;;;;26.42;23.90;;;-1.40;99.90;;;;;;4994917;28;20110;-81
2024/01/07 08:22:09;;;;;;;31.92;23.90;;;-1.40;99.90;;;;;;5002732;28;20041;-80
2024/01/07 08:24:36;;;;;;;26.35;23.80;;;-1.50;99.90;;;;;;5010835;28;20051;-79
2024/01/07 08:27:03;;;;;;;25.60;22.95;;;-1.40;99.90;;;;;;5011082;28;20065;-80
2024/01/07 08:29:30;;;;;;;25.33;22.60;;;-1.40;99.90;;;;;;5046204;28;20048;-80
2024/01/07 08:31:57;;;;;;;23.55;21.52;;;-1.40;99.90;;;;;;5032409;28;20044;-79
2024/01/07 08:34:24;;;;;;;24.10;21.92;;;-1.40;99.90;;;;;;5048107;28;20032;-80
2024/01/07 08:36:53;;;;;;;22.33;20.20;;;-1.50;99.90;;;;;;5019654;28;20037;-81
2024/01/07 08:39:22;;;;;;;24.98;23.13;;;-1.40;99.90;;;;;;5023358;28;20534;-79
2024/01/07 08:41:51;;;;;;;23.85;22.10;;;-1.50;99.90;;;;;;5037863;28;20034;-80
2024/01/07 08:44:18;;;;;;;22.80;21.10;;;-1.50;99.90;;;;;;5032679;28;21407;-79
2024/01/07 08:46:45;;;;;;;26.10;23.80;;;-1.60;99.90;;;;;;5003308;28;20051;-79
2024/01/07 08:49:13;;;;;;;26.23;24.02;;;-1.50;99.90;;;;;;5034602;28;20124;-80
2024/01/07 08:51:40;;;;;;;29.88;27.40;;;-1.50;99.90;;;;;;5047595;28;20080;-80
2024/01/07 08:54:07;;;;;;;23.90;22.00;;;-1.30;99.90;;;;;;5038011;28;20051;-79
2024/01/07 08:56:34;;;;;;;22.85;20.85;;;-1.20;99.90;;;;;;5046954;28;20072;-80
2024/01/07 08:59:00;;;;;;;18.95;17.52;;;-1.40;99.90;;;;;;4992917;28;20053;-79
2024/01/07 09:01:27;;;;;;;23.75;21.13;;;-1.60;99.90;;;;;;5044645;28;20045;-80
2024/01/07 09:03:54;;;;;;;21.48;19.77;;;-1.60;99.90;;;;;;5032569;28;20643;-80
2024/01/07 09:06:22;;;;;;;18.67;17.33;;;-1.60;99.90;;;;;;5034468;28;20128;-79
2024/01/07 09:08:48;;;;;;;21.38;19.38;;;-1.70;99.90;;;;;;5017013;28;20095;-80
2024/01/07 09:11:19;;;;;;;21.35;19.63;;;-1.70;99.90;;;;;;5030764;28;20075;-79
2024/01/07 09:13:48;;;;;;;19.38;17.67;;;-1.70;99.90;;;;;;5035326;28;20079;-80
2024/01/07 09:16:15;;;;;;;21.20;19.05;;;-1.70;99.90;;;;;;5013871;28;20037;-79
2024/01/07 09:18:44;;;;;;;19.80;18.20;;;-1.70;99.90;;;;;;5030805;28;20045;-81
2024/01/07 09:21:11;;;;;;;19.45;17.85;;;-1.60;99.90;;;;;;5029247;28;20239;-81
2024/01/07 09:23:39;;;;;;;18.38;17.17;;;-1.70;99.90;;;;;;5010743;28;20041;-80
2024/01/07 09:26:06;;;;;;;21.67;20.02;;;-1.80;99.90;;;;;;5032402;28;20076;-81
2024/01/07 09:28:33;;;;;;;20.98;19.08;;;-1.80;99.90;;;;;;5011792;28;20144;-81
2024/01/07 09:30:59;;;;;;;21.83;20.23;;;-1.90;99.90;;;;;;5030512;28;20044;-80
2024/01/07 09:33:26;;;;;;;22.70;20.60;;;-1.80;99.90;;;;;;5034725;28;20562;-80
2024/01/07 09:35:56;;;;;;;20.73;19.17;;;-1.80;99.90;;;;;;5012633;28;20084;-79
2024/01/07 09:38:36;;;;;;;22.33;20.23;;;-1.80;99.90;;;;;;5014164;28;20102;-80
2024/01/07 09:41:03;;;;;;;22.20;20.60;;;-1.80;99.90;;;;;;5017468;28;20435;-80
2024/01/07 09:43:30;;;;;;;23.13;21.10;;;-1.90;99.90;;;;;;5008328;28;20065;-79
2024/01/07 09:46:02;;;;;;;21.80;20.17;;;-1.80;99.90;;;;;;5001300;28;20110;-79
2024/01/07 09:48:30;;;;;;;24.25;22.08;;;-1.70;99.90;;;;;;5013238;28;20040;-79
2024/01/07 09:50:58;;;;;;;24.98;22.98;;;-1.70;99.90;;;;;;5027211;28;20128;-78
2024/01/07 09:53:30;;;;;;;30.05;27.05;;;-1.70;99.90;;;;;;5026858;28;20623;-78
2024/01/07 09:56:22;;;;;;;30.70;27.70;;;-1.80;99.90;;;;;;4989954;28;20136;-79
2024/01/07 09:58:49;;;;;;;22.27;20.67;;;-1.80;99.90;;;;;;5026709;28;20033;-78
2024/01/07 10:01:20;;;;;;;61.30;53.75;;;-1.90;99.90;;;;;;5013015;28;20041;-79
2024/01/07 10:03:47;;;;;;;22.55;20.75;;;-1.90;99.90;;;;;;5022282;28;20679;-79
2024/01/07 10:06:19;;;;;;;28.02;26.42;;;-1.90;99.90;;;;;;5026350;28;20717;-79
2024/01/07 10:08:46;;;;;;;28.92;27.23;;;-2.00;99.90;;;;;;5034292;28;20041;-79
2024/01/07 10:11:16;;;;;;;27.70;26.05;;;-2.00;99.90;;;;;;4999259;28;20139;-79
2024/01/07 10:13:47;;;;;;;28.92;27.23;;;-2.10;99.90;;;;;;5032435;28;20049;-80
2024/01/07 10:16:14;;;;;;;28.35;26.75;;;-2.10;99.90;;;;;;5010335;28;20049;-79
2024/01/07 10:18:41;;;;;;;28.60;26.85;;;-2.20;99.90;;;;;;5026065;28;20084;-79
2024/01/07 10:21:08;;;;;;;31.08;29.08;;;-2.20;99.90;;;;;;5021412;28;20296;-79
2024/01/07 10:23:35;;;;;;;33.50;31.42;;;-2.10;99.90;;;;;;5015992;28;20045;-78
2024/01/07 10:26:04;;;;;;;33.05;30.83;;;-2.10;99.90;;;;;;5022971;28;20041;-79
2024/01/07 10:28:45;;;;;;;28.40;26.60;;;-2.00;99.90;;;;;;5028192;28;20651;-78
2024/01/07 10:31:13;;;;;;;29.50;27.88;;;-2.00;99.90;;;;;;5019177;28;20053;-82
2024/01/07 10:33:40;;;;;;;29.90;27.92;;;-2.10;99.90;;;;;;5005516;28;20052;-79
2024/01/07 10:36:09;;;;;;;28.73;27.13;;;-2.10;99.90;;;;;;5024865;28;20039;-78
2024/01/07 10:38:36;;;;;;;28.83;27.02;;;-2.10;99.90;;;;;;5022636;28;20203;-77
2024/01/07 10:41:07;;;;;;;28.77;26.77;;;-2.10;99.90;;;;;;5032822;28;20065;-78
2024/01/07 10:43:38;;;;;;;30.15;28.35;;;-2.00;99.90;;;;;;5022637;28;20075;-79
2024/01/07 10:46:05;;;;;;;38.47;35.13;;;-2.00;99.90;;;;;;5026660;28;20053;-78
2024/01/07 10:48:37;;;;;;;31.92;29.58;;;-1.70;99.90;;;;;;5032756;28;20628;-79
2024/01/07 10:51:05;;;;;;;26.40;24.75;;;-1.60;99.90;;;;;;5028651;28;20053;-76
2024/01/07 10:53:40;;;;;;;28.25;26.50;;;-1.60;99.90;;;;;;5020034;28;20055;-78
2024/01/07 10:56:12;;;;;;;27.83;26.33;;;-1.60;99.90;;;;;;5026912;28;20033;-79
2024/01/07 10:58:41;;;;;;;29.58;27.80;;;-1.70;99.90;;;;;;5029368;28;20040;-81
2024/01/07 11:01:08;;;;;;;29.40;27.35;;;-1.70;99.90;;;;;;5028157;28;20037;-79
2024/01/07 11:03:45;;;;;;;29.80;28.10;;;-1.70;99.90;;;;;;5004618;28;20113;-81
2024/01/07 11:06:22;;;;;;;28.85;27.17;;;-1.70;99.90;;;;;;5025714;28;20041;-80
2024/01/07 11:08:58;;;;;;;30.77;28.70;;;-1.70;99.90;;;;;;5037394;28;20045;-79
2024/01/07 11:11:35;;;;;;;26.63;25.23;;;-1.60;99.90;;;;;;5074392;28;20055;-80
2024/01/07 11:14:02;;;;;;;37.17;34.25;;;-1.60;99.90;;;;;;5020067;28;20704;-80
2024/01/07 11:16:43;;;;;;;28.80;27.10;;;-1.60;99.90;;;;;;5028649;28;20099;-78
2024/01/07 11:19:13;;;;;;;28.60;26.90;;;-1.70;99.90;;;;;;5028821;28;20182;-79
2024/01/07 11:21:40;;;;;;;29.17;27.58;;;-1.80;99.90;;;;;;5021264;28;20230;-78
2024/01/07 11:24:07;;;;;;;30.38;28.67;;;-1.70;99.90;;;;;;5048572;28;20545;-79
2024/01/07 11:26:34;;;;;;;28.92;27.42;;;-1.60;99.90;;;;;;5035276;28;20102;-79
2024/01/07 11:29:01;;;;;;;29.27;27.58;;;-1.70;99.90;;;;;;5017210;28;20048;-78
2024/01/07 11:31:40;;;;;;;30.73;29.05;;;-1.60;99.90;;;;;;5028191;28;20052;-78
2024/01/07 11:34:07;;;;;;;104.78;72.47;;;-1.70;99.90;;;;;;5027238;28;20072;-77
2024/01/07 11:36:38;;;;;;;31.35;29.55;;;-1.60;99.90;;;;;;5033110;28;20683;-79
2024/01/07 11:39:08;;;;;;;28.77;27.27;;;-1.70;99.90;;;;;;5049784;28;20165;-80
2024/01/07 11:41:37;;;;;;;29.50;28.05;;;-1.60;99.90;;;;;;5017143;28;20065;-82
2024/01/07 11:44:05;;;;;;;38.90;35.95;;;-1.70;99.90;;;;;;5010644;28;20439;-81
2024/01/07 11:46:34;;;;;;;30.60;28.95;;;-1.80;99.90;;;;;;5004263;28;20040;-81
2024/01/07 11:49:01;;;;;;;31.45;29.55;;;-1.80;99.90;;;;;;5027558;28;21353;-81
2024/01/07 11:51:30;;;;;;;32.90;30.98;;;-1.70;99.90;;;;;;5025810;28;20041;-81
2024/01/07 11:53:59;;;;;;;31.42;29.75;;;-1.70;99.90;;;;;;5005437;28;20041;-81
2024/01/07 11:56:26;;;;;;;36.30;34.28;;;-1.70;99.90;;;;;;5033230;28;20055;-82
2024/01/07 11:58:53;;;;;;;33.85;32.03;;;-1.70;99.90;;;;;;5004802;28;20535;-78
2024/01/07 12:01:20;;;;;;;33.90;31.67;;;-1.70;99.90;;;;;;5030003;28;20034;-78
2024/01/07 12:03:47;;;;;;;32.35;30.48;;;-1.70;99.90;;;;;;5024362;28;20044;-78
2024/01/07 12:06:15;;;;;;;35.85;33.45;;;-1.80;99.90;;;;;;5032872;28;20053;-79
2024/01/07 12:08:46;;;;;;;38.35;35.70;;;-1.80;99.90;;;;;;5006844;28;20078;-79
2024/01/07 12:11:14;;;;;;;31.42;29.33;;;-1.80;99.90;;;;;;5029752;28;20049;-78
2024/01/07 12:13:42;;;;;;;31.80;29.85;;;-1.80;99.90;;;;;;5020263;28;20052;-79
2024/01/07 12:16:10;;;;;;;34.80;32.30;;;-1.80;99.90;;;;;;5030288;28;20135;-81
2024/01/07 12:18:38;;;;;;;40.88;36.75;;;-1.70;99.90;;;;;;5028247;28;20140;-79
2024/01/07 12:21:05;;;;;;;29.98;28.27;;;-1.80;99.90;;;;;;5035321;28;20045;-80
2024/01/07 12:23:36;;;;;;;31.52;29.77;;;-1.70;99.90;;;;;;5018925;28;20114;-78
2024/01/07 12:26:11;;;;;;;210.55;108.82;;;-1.80;99.90;;;;;;5011474;28;20049;-80
2024/01/07 12:28:38;;;;;;;30.48;28.58;;;-1.70;99.90;;;;;;5036308;28;20045;-77
2024/01/07 12:31:07;;;;;;;37.40;34.42;;;-1.70;99.90;;;;;;5050020;28;20073;-80
2024/01/07 12:33:37;;;;;;;31.05;29.25;;;-1.70;99.90;;;;;;5008025;28;20534;-79